Time;durP1;ratioP1;P1;durP2;ratioP2;P2;SDS_P1;SDS_P2;PMS_P1;PMS_P2;Temp;Humidity;BMP_temperature;BMP_pressure;BME280_temperature;BME280_humidity;BME280_pressure;Samples;Min_cycle;Max_cycle;Signal;HPM_P1;HPM_P2
2023/02/07 00:01:40;;;;;;;21.73;10.80;;;;;;;0.13;100.00;104023.91;2616470;36;20034;-52
2023/02/07 00:04:08;;;;;;;21.13;10.70;;;;;;;0.10;100.00;104023.00;2616017;36;20420;-55
2023/02/07 00:06:38;;;;;;;25.90;11.93;;;;;;;0.07;100.00;104022.97;2616927;36;20423;-56
2023/02/07 00:09:08;;;;;;;26.95;11.13;;;;;;;0.13;100.00;104013.31;2614434;36;20046;-52
2023/02/07 00:11:40;;;;;;;27.25;12.25;;;;;;;0.02;100.00;104016.78;2615646;36;20073;-55
2023/02/07 00:14:11;;;;;;;24.38;11.32;;;;;;;0.07;100.00;104018.53;2615777;31;20038;-55
2023/02/07 00:16:40;;;;;;;24.58;10.43;;;;;;;0.12;100.00;104010.66;2616181;36;20038;-55
2023/02/07 00:19:09;;;;;;;23.05;10.77;;;;;;;0.12;100.00;104008.00;2615869;36;20042;-55
2023/02/07 00:21:37;;;;;;;22.38;9.90;;;;;;;0.00;100.00;104006.19;2616255;36;20034;-54
2023/02/07 00:24:06;;;;;;;22.13;10.52;;;;;;;-0.04;100.00;104021.13;2614659;36;20038;-54
2023/02/07 00:26:35;;;;;;;18.33;9.20;;;;;;;-0.06;100.00;104001.72;2615125;36;20038;-57
2023/02/07 00:29:06;;;;;;;24.95;10.70;;;;;;;-0.15;100.00;104009.56;2615886;31;20049;-57
2023/02/07 00:31:36;;;;;;;19.63;9.95;;;;;;;-0.19;100.00;104015.75;2615891;36;20054;-54
2023/02/07 00:34:07;;;;;;;23.25;10.35;;;;;;;-0.23;100.00;104025.41;2615362;36;20065;-55
2023/02/07 00:36:37;;;;;;;21.45;10.93;;;;;;;-0.29;100.00;104024.50;2616278;36;20038;-54
2023/02/07 00:39:07;;;;;;;30.52;10.98;;;;;;;-0.22;100.00;104021.00;2615767;36;20030;-55
2023/02/07 00:41:36;;;;;;;16.05;9.13;;;;;;;-0.08;100.00;104019.34;2615882;36;20034;-56
2023/02/07 00:44:11;;;;;;;30.15;10.25;;;;;;;-0.08;100.00;104019.34;2614800;36;20029;-56
2023/02/07 00:46:40;;;;;;;19.30;9.13;;;;;;;-0.09;100.00;104025.53;2615932;36;20034;-54
2023/02/07 00:49:09;;;;;;;22.00;9.15;;;;;;;-0.11;100.00;104023.75;2613538;36;20052;-57
2023/02/07 00:51:37;;;;;;;17.77;9.90;;;;;;;-0.07;100.00;104018.47;2613905;36;20038;-54
2023/02/07 00:54:08;;;;;;;24.47;12.67;;;;;;;-0.08;100.00;104024.63;2613321;36;20034;-54
2023/02/07 00:56:37;;;;;;;26.38;11.77;;;;;;;-0.13;100.00;104023.72;2613139;36;20290;-55
2023/02/07 00:59:05;;;;;;;26.77;12.25;;;;;;;-0.14;100.00;104024.59;2615543;36;20567;-55
2023/02/07 01:01:36;;;;;;;23.20;10.90;;;;;;;-0.24;100.00;104030.69;2615644;36;20102;-56
2023/02/07 01:04:04;;;;;;;24.10;11.43;;;;;;;-0.25;100.00;104026.25;2613901;36;20058;-56
2023/02/07 01:06:34;;;;;;;20.30;10.75;;;;;;;-0.22;100.00;104021.00;2614046;36;20057;-56
2023/02/07 01:09:04;;;;;;;23.60;9.68;;;;;;;-0.24;100.00;104025.41;2614241;36;20038;-53
2023/02/07 01:11:33;;;;;;;21.17;10.40;;;;;;;-0.24;100.00;104015.69;2615253;36;20042;-56
2023/02/07 01:14:03;;;;;;;22.88;9.93;;;;;;;-0.24;100.00;104022.75;2615733;36;20030;-55
2023/02/07 01:16:35;;;;;;;27.40;10.38;;;;;;;-0.21;100.00;104033.34;2617152;36;20420;-55
2023/02/07 01:19:07;;;;;;;26.85;10.07;;;;;;;-0.24;100.00;104028.03;2615655;36;20029;-57
2023/02/07 01:21:36;;;;;;;24.48;9.88;;;;;;;-0.17;100.00;104029.88;2616339;31;20038;-54
2023/02/07 01:24:05;;;;;;;21.40;10.17;;;;;;;-0.16;100.00;104029.00;2615453;36;20435;-56
2023/02/07 01:26:33;;;;;;;20.65;8.80;;;;;;;-0.20;100.00;104033.38;2615107;36;20298;-53
2023/02/07 01:29:02;;;;;;;18.40;8.93;;;;;;;-0.23;100.00;104029.81;2615888;36;20053;-55
2023/02/07 01:31:30;;;;;;;18.65;7.70;;;;;;;-0.27;100.00;104028.03;2615264;32;20340;-57
2023/02/07 01:34:00;;;;;;;15.65;7.45;;;;;;;-0.26;100.00;104029.81;2613551;36;20034;-57
2023/02/07 01:36:32;;;;;;;15.25;6.43;;;;;;;-0.28;100.00;104027.16;2616387;36;20034;-56
2023/02/07 01:39:02;;;;;;;15.02;7.63;;;;;;;-0.39;100.00;104032.34;2616078;31;20305;-54
2023/02/07 01:41:31;;;;;;;21.20;8.93;;;;;;;-0.43;100.00;104033.16;2617119;31;20038;-57
2023/02/07 01:44:02;;;;;;;17.25;7.95;;;;;;;-0.40;100.00;104032.31;2616930;31;20031;-53
2023/02/07 01:46:33;;;;;;;23.13;8.70;;;;;;;-0.43;100.00;104030.53;2616702;36;20436;-55
2023/02/07 01:49:06;;;;;;;19.45;8.77;;;;;;;-0.46;100.00;104030.50;2615489;36;20035;-57
2023/02/07 01:51:38;;;;;;;17.48;8.63;;;;;;;-0.47;100.00;104036.69;2616845;36;20030;-54
2023/02/07 01:54:11;;;;;;;16.23;7.97;;;;;;;-0.40;100.00;104024.38;2616418;36;20042;-56
2023/02/07 01:56:44;;;;;;;21.25;8.32;;;;;;;-0.42;100.00;104039.38;2616122;36;20046;-55
2023/02/07 01:59:13;;;;;;;22.05;8.75;;;;;;;-0.46;100.00;104035.78;2617020;36;20412;-56
2023/02/07 02:01:42;;;;;;;22.00;8.68;;;;;;;-0.48;100.00;104024.31;2616284;36;20038;-53
2023/02/07 02:04:10;;;;;;;19.48;8.30;;;;;;;-0.56;100.00;104026.00;2615025;36;20803;-57
2023/02/07 02:06:42;;;;;;;19.13;8.05;;;;;;;-0.62;100.00;104028.59;2616492;36;20049;-58
2023/02/07 02:09:13;;;;;;;17.02;7.32;;;;;;;-0.56;100.00;104029.56;2615732;36;20042;-56
2023/02/07 02:12:13;;;;;;;20.95;7.72;;;;;;;-0.50;100.00;104036.66;2616135;36;20034;-55
2023/02/07 02:15:00;;;;;;;18.52;7.82;;;;;;;-0.57;100.00;104022.47;2616096;36;20045;-55
2023/02/07 02:17:38;;;;;;;18.77;7.82;;;;;;;-0.64;100.00;104023.28;2616314;36;20117;-56
2023/02/07 02:20:34;;;;;;;19.13;7.85;;;;;;;-0.64;100.00;104017.13;2614446;36;20045;-55
2023/02/07 02:23:22;;;;;;;17.73;7.40;;;;;;;-0.74;100.00;104024.97;2616459;36;20073;-56
2023/02/07 02:26:16;;;;;;;14.55;6.15;;;;;;;-0.61;100.00;104022.44;2616349;36;20068;-57
2023/02/07 02:29:29;;;;;;;15.68;7.10;;;;;;;-0.55;100.00;104022.50;2616268;36;20042;-56
2023/02/07 02:32:38;;;;;;;18.05;7.40;;;;;;;-0.49;100.00;104022.53;2616108;36;20042;-53
2023/02/07 02:35:14;;;;;;;;;;;;;;;-0.55;100.00;104012.78;2614887;36;20034;-56
2023/02/07 02:37:49;;;;;;;13.75;6.40;;;;;;;-0.77;100.00;104030.22;2616826;36;20489;-53
2023/02/07 02:40:24;;;;;;;17.27;6.45;;;;;;;-0.82;100.00;104026.66;2615781;36;20038;-53
2023/02/07 02:43:00;;;;;;;16.60;6.75;;;;;;;-0.83;100.00;104022.22;2616405;36;20030;-54
2023/02/07 02:45:33;;;;;;;13.40;6.45;;;;;;;-0.86;100.00;104027.47;2616073;36;20065;-56
2023/02/07 02:48:02;;;;;;;18.80;6.97;;;;;;;-0.89;100.00;104024.81;2616056;36;20027;-56
2023/02/07 02:50:35;;;;;;;;;;;;;;;-0.85;100.00;104028.34;2615873;36;20034;-57
2023/02/07 02:53:04;;;;;;;23.10;7.68;;;;;;;-0.84;100.00;104027.50;2616140;36;19950;-55
2023/02/07 02:56:05;;;;;;;24.40;7.75;;;;;;;-0.88;100.00;104027.47;2615648;36;20057;-55
2023/02/07 02:58:50;;;;;;;19.52;7.88;;;;;;;-0.94;100.00;104024.75;2615790;31;20596;-55
2023/02/07 03:01:25;;;;;;;14.77;6.40;;;;;;;-0.95;100.00;104024.75;2615337;31;20069;-56
2023/02/07 03:04:07;;;;;;;16.95;6.45;;;;;;;-1.03;100.00;104023.75;2615309;36;20034;-56
2023/02/07 03:06:50;;;;;;;15.90;6.68;;;;;;;-1.07;100.00;104025.50;2615786;36;20038;-57
2023/02/07 03:09:29;;;;;;;15.98;7.05;;;;;;;-1.15;100.00;104030.72;2614664;36;20066;-54
2023/02/07 03:12:02;;;;;;;22.57;7.17;;;;;;;-1.09;100.00;104022.84;2616226;36;20526;-54
2023/02/07 03:14:38;;;;;;;15.90;7.10;;;;;;;-1.16;100.00;104034.22;2616087;36;20037;-55
2023/02/07 03:17:15;;;;;;;18.40;6.40;;;;;;;-1.17;100.00;104029.78;2616037;36;20030;-55
2023/02/07 03:19:51;;;;;;;18.67;6.82;;;;;;;-1.09;100.00;104032.50;2615291;36;20041;-55
2023/02/07 03:22:27;;;;;;;20.55;7.63;;;;;;;-1.19;100.00;104039.47;2615409;36;20038;-57
2023/02/07 03:24:59;;;;;;;21.17;8.07;;;;;;;-1.11;100.00;104035.13;2616166;36;20030;-56
2023/02/07 03:27:30;;;;;;;14.85;6.47;;;;;;;-1.14;100.00;104026.28;2616451;36;20410;-57
2023/02/07 03:30:02;;;;;;;15.10;7.53;;;;;;;-1.26;100.00;104030.56;2615722;36;20030;-57
2023/02/07 03:32:34;;;;;;;21.42;7.32;;;;;;;-1.26;100.00;104029.69;2615383;36;20067;-56
2023/02/07 03:35:08;;;;;;;18.50;6.85;;;;;;;-1.30;100.00;104023.44;2615495;36;20067;-56
2023/02/07 03:37:41;;;;;;;16.05;6.90;;;;;;;-1.26;100.00;104021.75;2615480;31;20034;-56
2023/02/07 03:40:12;;;;;;;21.55;7.65;;;;;;;-1.34;100.00;104020.75;2616424;31;20034;-55
2023/02/07 03:42:44;;;;;;;17.33;7.45;;;;;;;-1.34;100.00;104024.31;2615621;36;20057;-57
2023/02/07 03:45:16;;;;;;;16.50;7.07;;;;;;;-1.30;100.00;104014.66;2616345;36;20026;-57
2023/02/07 03:47:44;;;;;;;20.30;6.93;;;;;;;-1.32;100.00;104022.56;2616580;36;20428;-58
2023/02/07 03:50:13;;;;;;;18.27;7.88;;;;;;;-1.30;100.00;104020.81;2615365;36;20022;-53
2023/02/07 03:52:44;;;;;;;15.65;7.65;;;;;;;-1.34;100.00;104020.75;2615711;36;20038;-56
2023/02/07 03:55:13;;;;;;;18.02;7.22;;;;;;;-1.62;100.00;104012.47;2616135;36;20030;-59
2023/02/07 03:57:41;;;;;;;17.55;6.95;;;;;;;-1.73;100.00;104019.38;2616649;31;20467;-52
2023/02/07 04:00:11;;;;;;;20.58;8.10;;;;;;;-1.63;100.00;104016.88;2615767;36;20047;-55
2023/02/07 04:02:39;;;;;;;17.98;7.38;;;;;;;-1.63;100.00;104019.53;2615132;36;20058;-54
2023/02/07 04:05:09;;;;;;;19.52;8.15;;;;;;;-1.84;100.00;104017.47;2615289;36;20034;-51
2023/02/07 04:07:37;;;;;;;18.08;8.10;;;;;;;-1.79;100.00;104005.22;2615575;36;20030;-52
2023/02/07 04:10:09;;;;;;;18.80;8.02;;;;;;;-1.82;100.00;103994.63;2615367;36;20029;-58
2023/02/07 04:12:37;;;;;;;18.52;7.95;;;;;;;-1.93;100.00;103996.22;2616261;36;20030;-54
2023/02/07 04:15:07;;;;;;;18.80;8.18;;;;;;;-1.90;100.00;103998.00;2615897;36;20038;-59
2023/02/07 04:17:35;;;;;;;19.20;8.32;;;;;;;-1.82;100.00;104004.31;2615128;36;20037;-59
2023/02/07 04:20:04;;;;;;;20.42;8.25;;;;;;;-1.91;100.00;103998.88;2615150;36;20038;-54
2023/02/07 04:22:33;;;;;;;23.63;9.07;;;;;;;-1.92;100.00;103999.75;2615379;36;20059;-56
2023/02/07 04:25:01;;;;;;;18.88;8.30;;;;;;;-1.86;100.00;104003.34;2616074;36;20034;-57
2023/02/07 04:27:32;;;;;;;15.52;7.88;;;;;;;-1.95;100.00;104003.22;2616044;36;20042;-58
2023/02/07 04:30:01;;;;;;;16.80;7.68;;;;;;;-2.00;100.00;104019.00;2615537;36;20177;-52
2023/02/07 04:32:29;;;;;;;20.83;8.35;;;;;;;-2.03;100.00;104015.41;2615651;36;20551;-56
2023/02/07 04:34:58;;;;;;;22.08;8.75;;;;;;;-2.06;100.00;104016.28;2615471;36;20030;-56
2023/02/07 04:37:26;;;;;;;20.80;8.25;;;;;;;-2.03;100.00;104011.03;2615922;36;20758;-58
2023/02/07 04:39:55;;;;;;;21.75;8.77;;;;;;;-2.02;100.00;104006.63;2615864;36;20057;-58
2023/02/07 04:42:23;;;;;;;14.68;8.20;;;;;;;-2.16;100.00;104015.22;2615435;36;20038;-58
2023/02/07 04:44:54;;;;;;;17.67;8.38;;;;;;;-2.24;100.00;104015.97;2615794;36;20033;-56
2023/02/07 04:47:22;;;;;;;22.80;8.43;;;;;;;-2.21;100.00;104023.94;2615813;31;20889;-58
2023/02/07 04:49:51;;;;;;;18.75;7.80;;;;;;;-2.22;100.00;104012.50;2615581;36;20431;-59
2023/02/07 04:52:19;;;;;;;21.02;9.52;;;;;;;-2.30;100.00;104014.13;2615245;36;21286;-58
2023/02/07 04:54:48;;;;;;;24.88;9.05;;;;;;;-2.29;100.00;104016.78;2616077;36;20050;-58
2023/02/07 04:57:17;;;;;;;20.73;8.82;;;;;;;-2.30;100.00;104019.41;2615814;36;20037;-54
2023/02/07 04:59:45;;;;;;;;;;;;;;;-2.37;100.00;104014.88;2615749;36;20026;-58
2023/02/07 05:02:16;;;;;;;19.13;9.30;;;;;;;-2.42;100.00;104016.56;2615594;36;19952;-57
2023/02/07 05:04:44;;;;;;;22.33;9.18;;;;;;;-2.45;100.00;104017.41;2615426;36;20034;-57
2023/02/07 05:07:13;;;;;;;20.15;10.15;;;;;;;-2.48;100.00;104020.88;2616000;36;20034;-58
2023/02/07 05:09:41;;;;;;;23.67;9.82;;;;;;;-2.55;100.00;104012.81;2613883;36;20038;-57
2023/02/07 05:12:10;;;;;;;17.90;8.18;;;;;;;-2.58;100.00;104010.13;2615289;36;20031;-55
2023/02/07 05:14:38;;;;;;;20.95;9.82;;;;;;;-2.55;100.00;104004.91;2615703;36;20038;-56
2023/02/07 05:17:06;;;;;;;20.40;9.27;;;;;;;-2.56;100.00;104006.69;2615747;31;20034;-57
2023/02/07 05:19:37;;;;;;;24.10;10.10;;;;;;;-2.50;100.00;104014.69;2614394;36;20130;-55
2023/02/07 05:22:06;;;;;;;25.33;10.95;;;;;;;-2.27;100.00;104011.53;2615897;31;20030;-58
2023/02/07 05:24:34;;;;;;;23.98;9.35;;;;;;;-2.24;100.00;104011.56;2615708;36;20436;-55
2023/02/07 05:27:02;;;;;;;30.30;10.13;;;;;;;-2.15;100.00;104014.38;2615510;36;20033;-57
2023/02/07 05:29:31;;;;;;;22.40;9.98;;;;;;;-2.16;100.00;104003.81;2615185;36;20045;-56
2023/02/07 05:34:42;;;;;;;21.30;9.55;;;;;;;-2.49;100.00;104015.56;2615338;36;20038;-53
2023/02/07 05:37:11;;;;;;;28.95;11.98;;;;;;;-2.49;100.00;104027.03;2616407;36;20504;-54
2023/02/07 05:39:39;;;;;;;21.10;9.43;;;;;;;-2.50;100.00;104029.63;2614580;36;20031;-53
2023/02/07 05:42:07;;;;;;;28.33;9.25;;;;;;;-2.50;100.00;104025.22;2615930;36;20416;-56
2023/02/07 05:44:36;;;;;;;23.08;10.13;;;;;;;-2.51;100.00;104034.00;2615453;36;20038;-57
2023/02/07 05:47:04;;;;;;;20.75;10.85;;;;;;;-2.53;100.00;104025.19;2615521;36;20038;-56
2023/02/07 05:49:32;;;;;;;30.08;12.45;;;;;;;-2.48;100.00;104039.31;2615041;36;20042;-57
2023/02/07 05:52:03;;;;;;;30.85;12.68;;;;;;;-2.43;100.00;104025.34;2615645;36;20038;-55
2023/02/07 05:54:32;;;;;;;30.20;11.63;;;;;;;-2.49;100.00;104027.03;2615148;36;20057;-57
2023/02/07 05:57:00;;;;;;;31.73;12.07;;;;;;;-2.44;100.00;104042.00;2614935;36;20535;-57
2023/02/07 05:59:29;;;;;;;34.40;13.07;;;;;;;-2.45;100.00;104027.94;2616171;36;20566;-59
2023/02/07 06:01:57;;;;;;;27.00;11.63;;;;;;;-2.21;100.00;104016.94;2615414;31;20038;-55
2023/02/07 06:04:26;;;;;;;28.45;11.75;;;;;;;-2.12;100.00;104027.63;2615223;36;20042;-55
2023/02/07 06:06:54;;;;;;;29.53;12.77;;;;;;;-2.22;100.00;104023.06;2616802;36;20034;-59
2023/02/07 06:09:25;;;;;;;27.35;11.30;;;;;;;-2.22;100.00;104020.41;2616139;36;20290;-57
2023/02/07 06:11:54;;;;;;;35.70;14.15;;;;;;;-2.28;100.00;104025.59;2616045;36;20038;-58
2023/02/07 06:14:29;;;;;;;35.03;13.32;;;;;;;-2.21;100.00;104018.66;2616833;36;20125;-55
2023/02/07 06:16:57;;;;;;;29.70;14.27;;;;;;;-2.14;100.00;104024.06;2615679;36;20447;-55
2023/02/07 06:19:26;;;;;;;35.47;14.57;;;;;;;-2.08;100.00;104011.84;2614526;36;20046;-58
2023/02/07 06:21:54;;;;;;;30.35;14.25;;;;;;;-2.05;100.00;104011.88;2614356;36;20069;-55
2023/02/07 06:24:25;;;;;;;33.80;13.38;;;;;;;-2.15;100.00;104010.84;2613621;31;20046;-55
2023/02/07 06:26:53;;;;;;;33.92;14.05;;;;;;;-2.19;100.00;104012.56;2614097;36;20042;-53
2023/02/07 06:29:22;;;;;;;31.17;12.13;;;;;;;-2.26;100.00;104018.59;2614323;36;20031;-54
2023/02/07 06:31:50;;;;;;;34.08;14.60;;;;;;;-2.19;100.00;104022.22;2614163;36;20539;-57
2023/02/07 06:34:18;;;;;;;40.72;13.90;;;;;;;-2.18;100.00;104027.53;2614393;36;20039;-54
2023/02/07 06:36:47;;;;;;;32.53;14.45;;;;;;;-2.20;100.00;104017.81;2613910;36;20038;-53
2023/02/07 06:39:15;;;;;;;33.25;14.60;;;;;;;-2.19;100.00;104025.75;2613864;36;20034;-57
2023/02/07 06:41:46;;;;;;;30.10;13.98;;;;;;;-2.22;100.00;104028.34;2614386;36;20027;-53
2023/02/07 06:44:15;;;;;;;36.47;14.43;;;;;;;-2.31;100.00;104023.78;2613275;36;20034;-60
2023/02/07 06:46:43;;;;;;;38.70;14.53;;;;;;;-2.50;100.00;104032.28;2615169;36;20150;-54
2023/02/07 06:49:12;;;;;;;31.25;13.38;;;;;;;-2.68;100.00;104032.81;2614111;36;20034;-56
2023/02/07 06:51:41;;;;;;;31.55;13.23;;;;;;;-2.79;100.00;104043.16;2612500;36;20570;-54
2023/02/07 06:54:09;;;;;;;32.63;13.40;;;;;;;-2.69;100.00;104041.59;2611518;31;20042;-52
2023/02/07 06:56:38;;;;;;;29.08;13.48;;;;;;;-2.67;100.00;104037.22;2615296;36;20434;-60
2023/02/07 06:59:09;;;;;;;32.85;13.48;;;;;;;-2.61;100.00;104045.25;2612998;36;20042;-53
2023/02/07 07:01:38;;;;;;;37.75;15.15;;;;;;;-2.53;100.00;104045.38;2615221;36;20409;-55
2023/02/07 07:04:06;;;;;;;32.25;13.77;;;;;;;-2.50;100.00;104040.19;2614169;36;20038;-55
2023/02/07 07:06:35;;;;;;;36.05;13.88;;;;;;;-2.57;100.00;104038.28;2615205;36;20050;-59
2023/02/07 07:09:03;;;;;;;33.92;14.93;;;;;;;-2.58;100.00;104037.38;2614143;36;20035;-54
2023/02/07 07:11:31;;;;;;;36.65;14.65;;;;;;;-2.61;100.00;104039.97;2613408;36;20050;-55
2023/02/07 07:14:01;;;;;;;35.22;14.95;;;;;;;-2.54;100.00;104049.78;2611199;36;20066;-58
2023/02/07 07:16:32;;;;;;;35.10;15.40;;;;;;;-2.45;100.00;104048.16;2613763;36;20046;-58
2023/02/07 07:19:01;;;;;;;34.20;15.20;;;;;;;-2.36;100.00;104046.56;2615766;36;20034;-53
2023/02/07 07:21:29;;;;;;;38.92;15.65;;;;;;;-2.18;100.00;104045.09;2616390;36;20566;-53
2023/02/07 07:23:58;;;;;;;44.10;17.67;;;;;;;-2.17;100.00;104050.38;2616849;36;20439;-55
2023/02/07 07:26:26;;;;;;;39.95;16.15;;;;;;;-2.06;100.00;104049.69;2615958;36;20038;-56
2023/02/07 07:28:57;;;;;;;41.58;16.73;;;;;;;-2.11;100.00;104046.97;2616241;36;20538;-53
2023/02/07 07:31:25;;;;;;;36.42;16.00;;;;;;;-2.07;100.00;104040.88;2615842;36;20034;-55
2023/02/07 07:33:57;;;;;;;46.13;17.85;;;;;;;-2.06;100.00;104036.47;2616399;36;20054;-58
2023/02/07 07:36:25;;;;;;;39.92;16.38;;;;;;;-2.12;100.00;104032.91;2616355;36;20917;-57
2023/02/07 07:38:54;;;;;;;40.58;16.90;;;;;;;-2.04;100.00;104029.50;2616774;36;20042;-53
2023/02/07 07:41:22;;;;;;;43.88;15.77;;;;;;;-1.98;100.00;104034.88;2615337;36;20026;-54
2023/02/07 07:43:50;;;;;;;41.15;17.42;;;;;;;-1.99;100.00;104039.25;2615269;36;20034;-56
2023/02/07 07:46:19;;;;;;;42.63;16.58;;;;;;;-1.92;100.00;104034.06;2615710;36;20030;-53
2023/02/07 07:48:47;;;;;;;43.95;18.25;;;;;;;-1.89;100.00;104029.72;2614923;36;20042;-57
2023/02/07 07:51:18;;;;;;;36.95;17.23;;;;;;;-1.81;100.00;104033.38;2614167;36;20034;-54
2023/02/07 07:53:46;;;;;;;52.35;17.20;;;;;;;-1.81;100.00;104043.00;2614510;36;20374;-57
2023/02/07 07:56:15;;;;;;;43.83;17.65;;;;;;;-1.82;100.00;104046.53;2613302;31;20489;-55
2023/02/07 07:58:43;;;;;;;41.25;17.85;;;;;;;-1.66;100.00;104042.38;2612818;36;20041;-57
2023/02/07 08:01:11;;;;;;;42.42;18.08;;;;;;;-1.72;100.00;104051.09;2615342;36;20034;-54
2023/02/07 08:03:40;;;;;;;47.38;18.95;;;;;;;-1.60;100.00;104053.03;2614448;36;20535;-55
2023/02/07 08:06:09;;;;;;;45.90;17.80;;;;;;;-1.51;100.00;104049.63;2613577;36;20038;-56
2023/02/07 08:08:40;;;;;;;43.35;17.10;;;;;;;-1.52;100.00;104040.78;2613261;36;20509;-56
2023/02/07 08:11:11;;;;;;;39.97;17.08;;;;;;;-1.53;100.00;104039.03;2616204;36;20034;-54
2023/02/07 08:13:40;;;;;;;44.13;18.27;;;;;;;-1.58;100.00;104040.72;2615995;36;20050;-58
2023/02/07 08:16:09;;;;;;;45.33;17.70;;;;;;;-1.49;100.00;104040.81;2615799;36;20114;-58
2023/02/07 08:18:37;;;;;;;;;;;;;;;-1.39;100.00;104041.84;2616302;36;20026;-56
2023/02/07 08:21:06;;;;;;;48.70;19.52;;;;;;;-1.39;100.00;104030.41;2614971;36;19943;-58
2023/02/07 08:23:35;;;;;;;48.97;18.52;;;;;;;-1.43;100.00;104035.66;2612240;36;20047;-60
2023/02/07 08:26:07;;;;;;;44.55;16.65;;;;;;;-1.47;100.00;104044.41;2614770;36;20447;-55
2023/02/07 08:28:36;;;;;;;42.85;17.75;;;;;;;-1.42;100.00;104058.53;2613113;36;20034;-57
2023/02/07 08:31:06;;;;;;;42.53;18.05;;;;;;;-1.30;100.00;104055.16;2614623;36;20038;-52
2023/02/07 08:33:34;;;;;;;42.53;17.10;;;;;;;-1.31;100.00;104053.41;2615461;31;20034;-58
2023/02/07 08:36:06;;;;;;;41.10;17.38;;;;;;;-1.28;100.00;104052.53;2616451;31;20035;-54
2023/02/07 08:38:35;;;;;;;40.55;17.33;;;;;;;-1.26;100.00;104056.09;2615842;36;20073;-56
2023/02/07 08:41:03;;;;;;;40.63;15.18;;;;;;;-1.20;100.00;104053.53;2615695;36;20026;-59
2023/02/07 08:43:34;;;;;;;45.85;16.98;;;;;;;-1.18;100.00;104051.78;2615845;36;20042;-59
2023/02/07 08:46:02;;;;;;;43.05;17.73;;;;;;;-1.11;100.00;104050.13;2614283;36;20045;-57
2023/02/07 08:48:31;;;;;;;41.45;16.08;;;;;;;-1.13;100.00;104050.09;2613363;36;20069;-57
2023/02/07 08:50:59;;;;;;;42.50;16.90;;;;;;;-1.09;100.00;104051.00;2614274;36;20056;-53
2023/02/07 08:53:27;;;;;;;44.63;17.20;;;;;;;-1.06;100.00;104046.66;2615892;36;20551;-57
2023/02/07 08:55:56;;;;;;;39.42;16.60;;;;;;;-0.98;100.00;104051.16;2615994;31;20531;-53
2023/02/07 08:58:24;;;;;;;41.28;16.77;;;;;;;-0.91;100.00;104055.66;2614261;31;20042;-58
2023/02/07 09:00:55;;;;;;;36.22;17.58;;;;;;;-0.92;100.00;104064.44;2614133;36;20538;-56
2023/02/07 09:03:23;;;;;;;47.47;19.73;;;;;;;-0.77;100.00;104069.00;2615704;36;20435;-57
2023/02/07 09:05:52;;;;;;;44.53;17.17;;;;;;;-0.68;100.00;104062.94;2616241;36;20562;-56
2023/02/07 09:08:20;;;;;;;43.65;18.10;;;;;;;-0.60;100.00;104066.56;2615426;31;20033;-56
2023/02/07 09:10:49;;;;;;;39.47;17.02;;;;;;;-0.49;100.00;104061.34;2615310;36;20416;-52
2023/02/07 09:13:17;;;;;;;43.88;16.77;;;;;;;-0.39;100.00;104061.44;2615830;36;20041;-56
2023/02/07 09:15:46;;;;;;;41.03;18.05;;;;;;;-0.37;100.00;104058.81;2615004;36;20027;-56
2023/02/07 09:18:16;;;;;;;35.47;17.08;;;;;;;-0.31;100.00;104050.94;2614285;36;20033;-58
2023/02/07 09:20:45;;;;;;;39.90;16.92;;;;;;;-0.24;100.00;104054.50;2615764;36;20042;-53
2023/02/07 09:23:19;;;;;;;37.67;16.38;;;;;;;0.11;100.00;104061.84;2614911;36;20034;-56
2023/02/07 09:25:49;;;;;;;41.35;16.55;;;;;;;0.17;100.00;104062.75;2613168;36;20550;-57
2023/02/07 09:28:18;;;;;;;35.78;15.48;;;;;;;0.46;100.00;104056.75;2613770;36;20071;-59
2023/02/07 09:30:48;;;;;;;40.20;16.10;;;;;;;0.49;100.00;104058.56;2613188;36;20038;-58
2023/02/07 09:33:19;;;;;;;38.17;15.98;;;;;;;0.45;100.00;104046.16;2615054;31;20042;-57
2023/02/07 09:35:48;;;;;;;37.15;15.15;;;;;;;0.82;100.00;104051.63;2615404;36;20026;-55
2023/02/07 09:38:19;;;;;;;34.15;13.88;;;;;;;0.96;100.00;104049.03;2616784;31;20026;-54
2023/02/07 09:40:51;;;;;;;36.45;14.30;;;;;;;1.02;100.00;104049.94;2616540;36;20117;-61
2023/02/07 09:43:33;;;;;;;30.88;13.55;;;;;;;1.08;100.00;104045.53;2616360;36;20065;-56
2023/02/07 09:46:06;;;;;;;29.83;13.82;;;;;;;1.05;100.00;104039.31;2616098;36;20045;-53
2023/02/07 09:48:47;;;;;;;26.45;12.35;;;;;;;1.11;100.00;104041.09;2616415;31;20035;-52
2023/02/07 09:51:19;;;;;;;23.25;10.68;;;;;;;1.27;100.00;104039.38;2616596;36;20042;-53
2023/02/07 09:53:53;;;;;;;25.70;11.80;;;;;;;1.30;100.00;104034.06;2616798;36;20084;-55
2023/02/07 09:56:25;;;;;;;26.50;11.52;;;;;;;1.42;100.00;104040.28;2615932;31;20039;-53
2023/02/07 09:59:00;;;;;;;26.90;12.57;;;;;;;1.46;100.00;104042.03;2616330;36;20042;-52
2023/02/07 10:01:34;;;;;;;27.50;12.15;;;;;;;1.40;100.00;104041.16;2616725;36;20026;-55
2023/02/07 10:04:17;;;;;;;30.50;14.18;;;;;;;1.53;100.00;104043.81;2616217;36;20042;-53
2023/02/07 10:06:49;;;;;;;26.48;12.18;;;;;;;1.60;100.00;104042.94;2616719;36;20030;-57
2023/02/07 10:09:20;;;;;;;25.65;12.93;;;;;;;1.57;100.00;104050.91;2616284;36;20118;-56
2023/02/07 10:11:54;;;;;;;28.52;12.15;;;;;;;1.57;100.00;104050.91;2616261;36;20061;-56
2023/02/07 10:14:38;;;;;;;26.85;12.90;;;;;;;1.71;100.00;104051.81;2616177;31;20041;-59
2023/02/07 10:17:22;;;;;;;24.98;11.05;;;;;;;1.58;100.00;104066.84;2616881;36;20115;-57
2023/02/07 10:20:01;;;;;;;31.55;12.00;;;;;;;1.71;100.00;104064.22;2615503;36;20038;-58
2023/02/07 10:22:41;;;;;;;26.23;11.35;;;;;;;1.70;100.00;104059.78;2615509;36;20027;-54
2023/02/07 10:25:32;;;;;;;26.17;12.00;;;;;;;1.82;100.00;104059.75;2616178;36;20030;-58
2023/02/07 10:28:10;;;;;;;22.95;11.63;;;;;;;1.99;100.00;104065.09;2616534;36;20610;-58
2023/02/07 10:30:41;;;;;;;30.63;11.85;;;;;;;2.04;100.00;104065.94;2615591;31;20034;-56
2023/02/07 10:33:24;;;;;;;21.58;10.35;;;;;;;2.08;100.00;104072.16;2614491;36;20559;-59
2023/02/07 10:35:56;;;;;;;21.10;10.73;;;;;;;1.84;100.00;104073.94;2612857;36;20042;-57
2023/02/07 10:38:31;;;;;;;21.90;10.15;;;;;;;1.81;100.00;104083.66;2614653;36;20038;-56
2023/02/07 10:41:04;;;;;;;20.40;10.32;;;;;;;2.09;100.00;104079.22;2616265;31;20034;-58
2023/02/07 10:43:35;;;;;;;23.77;11.18;;;;;;;2.23;100.00;104081.88;2615481;36;20038;-59
2023/02/07 10:46:07;;;;;;;20.13;10.13;;;;;;;2.00;100.00;104080.13;2614836;36;20068;-56
2023/02/07 10:48:37;;;;;;;22.58;10.55;;;;;;;2.37;100.00;104074.78;2615863;36;20535;-55
2023/02/07 10:51:16;;;;;;;;;;;;;;;2.33;100.00;104078.31;2616738;31;20023;-57
2023/02/07 10:53:46;;;;;;;23.88;10.98;;;;;;;2.51;100.00;104076.50;2616112;36;20042;-56
2023/02/07 10:56:20;;;;;;;24.50;10.43;;;;;;;2.77;100.00;104079.97;2615519;36;20137;-56
2023/02/07 10:58:48;;;;;;;19.95;10.77;;;;;;;2.90;100.00;104079.91;2616151;36;20026;-58
2023/02/07 11:01:22;;;;;;;20.60;9.75;;;;;;;2.84;100.00;104074.59;2616717;36;20042;-60
2023/02/07 11:03:51;;;;;;;17.48;9.25;;;;;;;3.00;100.00;104070.97;2615668;31;20141;-57
2023/02/07 11:06:27;;;;;;;18.02;9.23;;;;;;;2.82;100.00;104071.09;2615700;36;20027;-58
2023/02/07 11:09:21;;;;;;;20.17;9.93;;;;;;;3.01;100.00;104067.44;2616103;36;20038;-54
2023/02/07 11:11:51;;;;;;;26.50;11.43;;;;;;;3.12;100.00;104059.38;2615634;36;20134;-54
2023/02/07 11:14:25;;;;;;;;;;;;;;;3.24;100.00;104055.75;2616670;36;20435;-56
2023/02/07 11:16:54;;;;;;;20.23;9.75;;;;;;;3.17;100.00;104059.38;2616229;36;20054;-56
2023/02/07 11:19:25;;;;;;;;;;;;;;;3.24;100.00;104059.34;2616692;36;20026;-53
2023/02/07 11:22:08;;;;;;;22.33;9.73;;;;;;;3.19;100.00;104058.47;2616303;36;19946;-52
2023/02/07 11:24:39;;;;;;;18.85;10.43;;;;;;;3.25;100.00;104055.75;2616529;31;20027;-56
2023/02/07 11:27:16;;;;;;;21.08;9.82;;;;;;;3.15;100.00;104049.63;2616512;36;20026;-53
2023/02/07 11:29:50;;;;;;;21.92;9.82;;;;;;;3.21;100.00;104053.13;2616839;36;20026;-55
2023/02/07 11:32:20;;;;;;;19.83;9.73;;;;;;;3.13;100.00;104051.38;2614525;36;20042;-54